Wetterstation Camping Dickerscheid
Wetterdaten: aktuell Montag, 23.04.2018 22:41
Datum Zeit Temp. Innen Temp. Auen Feuchte I. Feuchte A. Luftdruck Regen Wind W-Richtung W-Richtung Taupunkt Windchill Windben
23.04.2018 22:41 22,8 C 9,8 C 41 % 79 % 1013,1 hPa 0,0 mm 6,4 km/h (2 Bft) W-NW 298 6,3 C 9,1 C 6,4 km/h (2 Bft)
23.04.2018 21:41 22,8 C 10,7 C 41 % 75 % 1012,9 hPa 0,0 mm 6,4 km/h (2 Bft) W-NW 298 6,5 C 10,7 C 6,4 km/h (2 Bft)
23.04.2018 20:41 22,8 C 12,2 C 41 % 71 % 1012,2 hPa 0,0 mm 6,4 km/h (2 Bft) W-NW 298 7,1 C 12,2 C 6,4 km/h (2 Bft)
23.04.2018 19:41 22,9 C 13,2 C 41 % 67 % 1012,1 hPa 0,0 mm 2,2 km/h (1 Bft) N 355 7,2 C 13,2 C 8,0 km/h (2 Bft)
23.04.2018 18:41 23,1 C 14,8 C 41 % 63 % 1011,9 hPa 0,0 mm 4,5 km/h (1 Bft) W-NW 287 7,8 C 14,8 C 8,0 km/h (2 Bft)
23.04.2018 17:41 23,2 C 15,7 C 41 % 61 % 1011,6 hPa 0,0 mm 1,0 km/h (0 Bft) N-NW 342 8,2 C 15,7 C 3,2 km/h (1 Bft)
23.04.2018 16:41 23,2 C 15,9 C 41 % 58 % 1011,3 hPa 0,0 mm 3,0 km/h (1 Bft) NW 323 7,6 C 15,9 C 4,8 km/h (1 Bft)
23.04.2018 15:41 23,1 C 16,4 C 41 % 60 % 1011,3 hPa 0,0 mm 2,9 km/h (1 Bft) S 185 8,6 C 16,4 C 4,8 km/h (1 Bft)
23.04.2018 14:41 23,1 C 15,9 C 42 % 66 % 1011,8 hPa 0,0 mm 4,8 km/h (1 Bft) W-NW 285 9,6 C 15,9 C 8,0 km/h (2 Bft)
23.04.2018 13:41 23,2 C 15,3 C 42 % 71 % 1011,5 hPa 0,0 mm 3,7 km/h (1 Bft) O 84 10,1 C 15,3 C 8,0 km/h (2 Bft)
23.04.2018 12:41 23,1 C 15,2 C 43 % 76 % 1011,5 hPa 0,2 mm 3,2 km/h (1 Bft) N-NW 336 11,0 C 15,2 C 11,3 km/h (2 Bft)
23.04.2018 11:41 23,1 C 15,6 C 43 % 73 % 1010,7 hPa 0,0 mm 6,7 km/h (2 Bft) NO 54 10,8 C 15,6 C 12,9 km/h (3 Bft)
23.04.2018 10:41 23,1 C 14,5 C 43 % 77 % 1010,2 hPa 0,0 mm 3,3 km/h (1 Bft) N-NW 347 10,5 C 14,5 C 6,4 km/h (2 Bft)
23.04.2018 09:41 22,9 C 13,2 C 44 % 86 % 1010,0 hPa 0,0 mm 1,5 km/h (1 Bft) SO 124 10,9 C 13,2 C 4,8 km/h (1 Bft)
23.04.2018 08:41 22,8 C 12,0 C 44 % 92 % 1009,6 hPa 0,0 mm 0,2 km/h (0 Bft) N 351 10,7 C 12,0 C 1,6 km/h (1 Bft)
23.04.2018 07:41 22,8 C 10,7 C 44 % 94 % 1009,1 hPa 0,0 mm 1,6 km/h (1 Bft) S 175 9,8 C 10,7 C 1,6 km/h (1 Bft)
23.04.2018 06:41 22,8 C 10,7 C 45 % 94 % 1008,6 hPa 0,0 mm 1,6 km/h (1 Bft) S 175 9,8 C 10,7 C 1,6 km/h (1 Bft)
23.04.2018 05:41 22,8 C 11,7 C 45 % 94 % 1008,4 hPa 0,0 mm 1,6 km/h (1 Bft) S 175 10,8 C 11,7 C 1,6 km/h (1 Bft)
23.04.2018 04:41 22,8 C 12,3 C 45 % 93 % 1008,7 hPa 0,2 mm 1,6 km/h (1 Bft) S 175 11,2 C 12,3 C 1,6 km/h (1 Bft)
23.04.2018 03:41 22,8 C 13,0 C 44 % 91 % 1008,3 hPa 0,4 mm 1,6 km/h (1 Bft) S 175 11,6 C 13,0 C 1,6 km/h (1 Bft)
23.04.2018 02:41 23,1 C 13,3 C 43 % 84 % 1007,9 hPa 0,0 mm 1,6 km/h (1 Bft) S 175 10,7 C 13,3 C 1,6 km/h (1 Bft)
23.04.2018 01:41 23,1 C 14,3 C 44 % 81 % 1008,5 hPa 0,0 mm 1,6 km/h (1 Bft) S 175 11,1 C 14,3 C 1,6 km/h (1 Bft)
23.04.2018 00:41 23,5 C 15,9 C 43 % 74 % 1008,1 hPa 0,0 mm 1,6 km/h (1 Bft) S 175 11,3 C 15,9 C 1,6 km/h (1 Bft)
22.04.2018 23:41 23,5 C 15,9 C 44 % 77 % 1008,2 hPa 0,0 mm 1,6 km/h (1 Bft) S 175 11,9 C 15,9 C 1,6 km/h (1 Bft)
22.04.2018 23:00 23,7 C 16,1 C 44 % 76 % 1008,0 hPa 0,0 mm 1,6 km/h (1 Bft) S 175 11,9 C 16,1 C 1,6 km/h (1 Bft)
_ Min-Zeit 05:27 22:37 14:21 16:38 02:22 - 08:34 - - 22:37 22:37 08:34
Minimum _ 22,7 C 9,8 C 40 % 56 % 1007,8 hPa - 0,0 km/h (0 Bft) - - 6,3 C 9,1 C 0,0 km/h (0 Bft)
_ Max-Zeit 23:00 15:21 03:55 06:57 22:02 03:24 17:07 - - 23:18 15:21 17:07
Maximum _ 23,7 C 16,8 C 45 % 95 % 1013,3 hPa 0,2 mm 8,8 km/h
W-NW (2 Bft)
- - 11,9 C 16,8 C 20,9 km/h
N-NW (4 Bft)
Durchschnitt _ 23,1 C 13,9 C 43 % 77 % 1010,1 hPa #0,8 mm 2,8 km/h (1 Bft) S - 9,8 C 13,9 C 4,6 km/h (1 Bft)